sensor_id;sensor_type;location;lat;lon;timestamp;temperature;humidity
44886;DHT22;36669;51.428;21.162;2023-11-21T00:02:26;2.80;99.90
44886;DHT22;36669;51.428;21.162;2023-11-21T00:04:54;2.80;99.90
44886;DHT22;36669;51.428;21.162;2023-11-21T00:07:20;2.80;99.90
44886;DHT22;36669;51.428;21.162;2023-11-21T00:09:48;2.80;99.90
44886;DHT22;36669;51.428;21.162;2023-11-21T00:12:15;2.80;99.90
44886;DHT22;36669;51.428;21.162;2023-11-21T00:14:40;2.80;99.90
44886;DHT22;36669;51.428;21.162;2023-11-21T00:17:06;2.80;99.90
44886;DHT22;36669;51.428;21.162;2023-11-21T00:19:32;2.80;99.90
44886;DHT22;36669;51.428;21.162;2023-11-21T00:22:03;2.80;99.90
44886;DHT22;36669;51.428;21.162;2023-11-21T00:24:31;2.70;99.90
44886;DHT22;36669;51.428;21.162;2023-11-21T00:26:58;2.70;99.90
44886;DHT22;36669;51.428;21.162;2023-11-21T00:29:25;2.70;99.90
44886;DHT22;36669;51.428;21.162;2023-11-21T00:31:51;2.70;99.90
44886;DHT22;36669;51.428;21.162;2023-11-21T00:34:17;2.60;99.90
44886;DHT22;36669;51.428;21.162;2023-11-21T00:36:44;2.60;99.90
44886;DHT22;36669;51.428;21.162;2023-11-21T00:39:11;2.60;99.90
44886;DHT22;36669;51.428;21.162;2023-11-21T00:41:38;2.60;99.90
44886;DHT22;36669;51.428;21.162;2023-11-21T00:44:04;2.50;99.90
44886;DHT22;36669;51.428;21.162;2023-11-21T00:46:32;2.50;99.90
44886;DHT22;36669;51.428;21.162;2023-11-21T00:48:59;2.50;99.90
44886;DHT22;36669;51.428;21.162;2023-11-21T00:51:24;2.50;99.90
44886;DHT22;36669;51.428;21.162;2023-11-21T00:53:51;2.50;99.90
44886;DHT22;36669;51.428;21.162;2023-11-21T00:56:18;2.50;99.90
44886;DHT22;36669;51.428;21.162;2023-11-21T00:58:45;2.50;99.90
44886;DHT22;36669;51.428;21.162;2023-11-21T01:01:20;2.50;99.90
44886;DHT22;36669;51.428;21.162;2023-11-21T01:03:50;2.40;99.90
44886;DHT22;36669;51.428;21.162;2023-11-21T01:06:18;2.50;99.90
44886;DHT22;36669;51.428;21.162;2023-11-21T01:08:47;2.40;99.90
44886;DHT22;36669;51.428;21.162;2023-11-21T01:11:14;2.40;99.90
44886;DHT22;36669;51.428;21.162;2023-11-21T01:13:41;2.40;99.90
44886;DHT22;36669;51.428;21.162;2023-11-21T01:16:08;2.40;99.90
44886;DHT22;36669;51.428;21.162;2023-11-21T01:18:34;2.40;99.90
44886;DHT22;36669;51.428;21.162;2023-11-21T01:21:02;2.40;99.90
44886;DHT22;36669;51.428;21.162;2023-11-21T01:23:31;2.40;99.90
44886;DHT22;36669;51.428;21.162;2023-11-21T01:25:58;2.30;99.90
44886;DHT22;36669;51.428;21.162;2023-11-21T01:28:25;2.40;99.90
44886;DHT22;36669;51.428;21.162;2023-11-21T01:30:52;2.40;99.90
44886;DHT22;36669;51.428;21.162;2023-11-21T01:33:19;2.40;99.90
44886;DHT22;36669;51.428;21.162;2023-11-21T01:35:46;2.40;99.90
44886;DHT22;36669;51.428;21.162;2023-11-21T01:38:12;2.40;99.90
44886;DHT22;36669;51.428;21.162;2023-11-21T01:40:37;2.40;99.90
44886;DHT22;36669;51.428;21.162;2023-11-21T01:43:04;2.40;99.90
44886;DHT22;36669;51.428;21.162;2023-11-21T01:45:31;2.30;99.90
44886;DHT22;36669;51.428;21.162;2023-11-21T01:48:01;2.30;99.90
44886;DHT22;36669;51.428;21.162;2023-11-21T01:50:29;2.30;99.90
44886;DHT22;36669;51.428;21.162;2023-11-21T01:52:56;2.30;99.90
44886;DHT22;36669;51.428;21.162;2023-11-21T01:55:22;2.30;99.90
44886;DHT22;36669;51.428;21.162;2023-11-21T01:57:49;2.30;99.90
44886;DHT22;36669;51.428;21.162;2023-11-21T02:00:16;2.30;99.90
44886;DHT22;36669;51.428;21.162;2023-11-21T02:02:47;2.30;99.90
44886;DHT22;36669;51.428;21.162;2023-11-21T02:05:17;2.20;99.90
44886;DHT22;36669;51.428;21.162;2023-11-21T02:07:48;2.20;99.90
44886;DHT22;36669;51.428;21.162;2023-11-21T02:10:15;2.20;99.90
44886;DHT22;36669;51.428;21.162;2023-11-21T02:12:43;2.20;99.90
44886;DHT22;36669;51.428;21.162;2023-11-21T02:15:16;2.20;99.90
44886;DHT22;36669;51.428;21.162;2023-11-21T02:18:06;2.20;99.90
44886;DHT22;36669;51.428;21.162;2023-11-21T02:20:33;2.20;99.90
44886;DHT22;36669;51.428;21.162;2023-11-21T02:23:01;2.20;99.90
44886;DHT22;36669;51.428;21.162;2023-11-21T02:25:35;2.20;99.90
44886;DHT22;36669;51.428;21.162;2023-11-21T02:28:03;2.10;99.90
44886;DHT22;36669;51.428;21.162;2023-11-21T02:30:32;2.10;99.90
44886;DHT22;36669;51.428;21.162;2023-11-21T02:32:57;2.10;99.90
44886;DHT22;36669;51.428;21.162;2023-11-21T02:35:26;2.10;99.90
44886;DHT22;36669;51.428;21.162;2023-11-21T02:37:53;2.10;99.90
44886;DHT22;36669;51.428;21.162;2023-11-21T02:40:20;2.10;99.90
44886;DHT22;36669;51.428;21.162;2023-11-21T02:42:51;2.10;99.90
44886;DHT22;36669;51.428;21.162;2023-11-21T02:45:19;2.10;99.90
44886;DHT22;36669;51.428;21.162;2023-11-21T02:47:48;2.10;99.90
44886;DHT22;36669;51.428;21.162;2023-11-21T02:50:18;2.10;99.90
44886;DHT22;36669;51.428;21.162;2023-11-21T02:52:45;2.10;99.90
44886;DHT22;36669;51.428;21.162;2023-11-21T02:55:13;2.10;99.90
44886;DHT22;36669;51.428;21.162;2023-11-21T02:57:41;2.10;99.90
44886;DHT22;36669;51.428;21.162;2023-11-21T03:00:07;2.10;99.90
44886;DHT22;36669;51.428;21.162;2023-11-21T03:02:34;2.00;99.90
44886;DHT22;36669;51.428;21.162;2023-11-21T03:05:06;2.00;99.90
44886;DHT22;36669;51.428;21.162;2023-11-21T03:07:31;2.00;99.90
44886;DHT22;36669;51.428;21.162;2023-11-21T03:09:57;2.00;99.90
44886;DHT22;36669;51.428;21.162;2023-11-21T03:12:25;1.90;99.90
44886;DHT22;36669;51.428;21.162;2023-11-21T03:14:52;2.00;99.90
44886;DHT22;36669;51.428;21.162;2023-11-21T03:17:21;1.90;99.90
44886;DHT22;36669;51.428;21.162;2023-11-21T03:19:48;2.00;99.90
44886;DHT22;36669;51.428;21.162;2023-11-21T03:22:15;2.00;99.90
44886;DHT22;36669;51.428;21.162;2023-11-21T03:24:40;1.90;99.90
44886;DHT22;36669;51.428;21.162;2023-11-21T03:27:06;1.90;99.90
44886;DHT22;36669;51.428;21.162;2023-11-21T03:29:32;1.90;99.90
44886;DHT22;36669;51.428;21.162;2023-11-21T03:31:59;1.90;99.90
44886;DHT22;36669;51.428;21.162;2023-11-21T03:34:30;1.80;99.90
44886;DHT22;36669;51.428;21.162;2023-11-21T03:36:56;1.90;99.90
44886;DHT22;36669;51.428;21.162;2023-11-21T03:39:22;1.80;99.90
44886;DHT22;36669;51.428;21.162;2023-11-21T03:41:48;1.80;99.90
44886;DHT22;36669;51.428;21.162;2023-11-21T03:44:15;1.80;99.90
44886;DHT22;36669;51.428;21.162;2023-11-21T03:46:41;1.80;99.90
44886;DHT22;36669;51.428;21.162;2023-11-21T03:49:07;1.90;99.90
44886;DHT22;36669;51.428;21.162;2023-11-21T03:51:34;1.80;99.90
44886;DHT22;36669;51.428;21.162;2023-11-21T03:54:01;1.80;99.90
44886;DHT22;36669;51.428;21.162;2023-11-21T03:56:27;1.90;99.90
44886;DHT22;36669;51.428;21.162;2023-11-21T03:58:54;1.80;99.90
44886;DHT22;36669;51.428;21.162;2023-11-21T04:01:24;1.80;99.90
44886;DHT22;36669;51.428;21.162;2023-11-21T04:03:50;1.90;99.90
44886;DHT22;36669;51.428;21.162;2023-11-21T04:06:17;1.80;99.90
44886;DHT22;36669;51.428;21.162;2023-11-21T04:08:45;1.80;99.90
44886;DHT22;36669;51.428;21.162;2023-11-21T04:11:11;1.80;99.90
44886;DHT22;36669;51.428;21.162;2023-11-21T04:13:42;1.80;99.90
44886;DHT22;36669;51.428;21.162;2023-11-21T04:16:09;1.70;99.90
44886;DHT22;36669;51.428;21.162;2023-11-21T04:18:38;1.80;99.90
44886;DHT22;36669;51.428;21.162;2023-11-21T04:21:05;1.70;99.90
44886;DHT22;36669;51.428;21.162;2023-11-21T04:23:35;1.70;99.90
44886;DHT22;36669;51.428;21.162;2023-11-21T04:26:02;1.70;99.90
44886;DHT22;36669;51.428;21.162;2023-11-21T04:28:29;1.70;99.90
44886;DHT22;36669;51.428;21.162;2023-11-21T04:30:57;1.70;99.90
44886;DHT22;36669;51.428;21.162;2023-11-21T04:33:24;1.60;99.90
44886;DHT22;36669;51.428;21.162;2023-11-21T04:35:52;1.60;99.90
44886;DHT22;36669;51.428;21.162;2023-11-21T04:38:17;1.60;99.90
44886;DHT22;36669;51.428;21.162;2023-11-21T04:40:46;1.50;99.90
44886;DHT22;36669;51.428;21.162;2023-11-21T04:43:15;1.50;99.90
44886;DHT22;36669;51.428;21.162;2023-11-21T04:45:40;1.50;99.90
44886;DHT22;36669;51.428;21.162;2023-11-21T04:48:08;1.50;99.90
44886;DHT22;36669;51.428;21.162;2023-11-21T04:50:34;1.50;99.90
44886;DHT22;36669;51.428;21.162;2023-11-21T04:53:01;1.50;99.90
44886;DHT22;36669;51.428;21.162;2023-11-21T04:55:29;1.40;99.90
44886;DHT22;36669;51.428;21.162;2023-11-21T04:57:56;1.50;99.90
44886;DHT22;36669;51.428;21.162;2023-11-21T05:00:21;1.50;99.90
44886;DHT22;36669;51.428;21.162;2023-11-21T05:02:49;1.50;99.90
44886;DHT22;36669;51.428;21.162;2023-11-21T05:05:16;1.40;99.90
44886;DHT22;36669;51.428;21.162;2023-11-21T05:07:45;1.40;99.90
44886;DHT22;36669;51.428;21.162;2023-11-21T05:10:11;1.40;99.90
44886;DHT22;36669;51.428;21.162;2023-11-21T05:12:43;1.40;99.90
44886;DHT22;36669;51.428;21.162;2023-11-21T05:15:09;1.40;99.90
44886;DHT22;36669;51.428;21.162;2023-11-21T05:17:42;1.40;99.90
44886;DHT22;36669;51.428;21.162;2023-11-21T05:20:10;1.40;99.90
44886;DHT22;36669;51.428;21.162;2023-11-21T05:22:37;1.40;99.90
44886;DHT22;36669;51.428;21.162;2023-11-21T05:25:05;1.40;99.90
44886;DHT22;36669;51.428;21.162;2023-11-21T05:27:33;1.40;99.90
44886;DHT22;36669;51.428;21.162;2023-11-21T05:30:04;1.40;99.90
44886;DHT22;36669;51.428;21.162;2023-11-21T05:32:39;1.40;99.90
44886;DHT22;36669;51.428;21.162;2023-11-21T05:35:06;1.30;99.90
44886;DHT22;36669;51.428;21.162;2023-11-21T05:37:37;1.30;99.90
44886;DHT22;36669;51.428;21.162;2023-11-21T05:40:07;1.30;99.90
44886;DHT22;36669;51.428;21.162;2023-11-21T05:42:38;1.30;99.90
44886;DHT22;36669;51.428;21.162;2023-11-21T05:45:05;1.30;99.90
44886;DHT22;36669;51.428;21.162;2023-11-21T05:47:45;1.30;99.90
44886;DHT22;36669;51.428;21.162;2023-11-21T05:50:17;1.30;99.90
44886;DHT22;36669;51.428;21.162;2023-11-21T05:52:45;1.30;99.90
44886;DHT22;36669;51.428;21.162;2023-11-21T05:55:14;1.30;99.90
44886;DHT22;36669;51.428;21.162;2023-11-21T05:57:43;1.30;99.90
44886;DHT22;36669;51.428;21.162;2023-11-21T06:00:30;1.20;99.90
44886;DHT22;36669;51.428;21.162;2023-11-21T06:02:59;1.20;99.90
44886;DHT22;36669;51.428;21.162;2023-11-21T06:05:27;1.20;99.90
44886;DHT22;36669;51.428;21.162;2023-11-21T06:07:54;1.20;99.90
44886;DHT22;36669;51.428;21.162;2023-11-21T06:10:22;1.10;99.90
44886;DHT22;36669;51.428;21.162;2023-11-21T06:12:49;1.10;99.90
44886;DHT22;36669;51.428;21.162;2023-11-21T06:15:16;1.10;99.90
44886;DHT22;36669;51.428;21.162;2023-11-21T06:17:43;1.10;99.90
44886;DHT22;36669;51.428;21.162;2023-11-21T06:20:11;1.10;99.90
44886;DHT22;36669;51.428;21.162;2023-11-21T06:22:44;1.10;99.90
44886;DHT22;36669;51.428;21.162;2023-11-21T06:25:11;1.10;99.90
44886;DHT22;36669;51.428;21.162;2023-11-21T06:27:40;1.10;99.90
44886;DHT22;36669;51.428;21.162;2023-11-21T06:30:09;1.10;99.90
44886;DHT22;36669;51.428;21.162;2023-11-21T06:32:37;1.10;99.90
44886;DHT22;36669;51.428;21.162;2023-11-21T06:35:06;1.10;99.90
44886;DHT22;36669;51.428;21.162;2023-11-21T06:37:33;1.10;99.90
44886;DHT22;36669;51.428;21.162;2023-11-21T06:39:59;1.10;99.90
44886;DHT22;36669;51.428;21.162;2023-11-21T06:42:28;1.20;99.90
44886;DHT22;36669;51.428;21.162;2023-11-21T06:44:55;1.10;99.90
44886;DHT22;36669;51.428;21.162;2023-11-21T06:47:30;1.10;99.90
44886;DHT22;36669;51.428;21.162;2023-11-21T06:49:56;1.10;99.90
44886;DHT22;36669;51.428;21.162;2023-11-21T06:52:21;1.00;99.90
44886;DHT22;36669;51.428;21.162;2023-11-21T06:54:49;1.00;99.90
44886;DHT22;36669;51.428;21.162;2023-11-21T06:57:16;1.10;99.90
44886;DHT22;36669;51.428;21.162;2023-11-21T06:59:43;1.00;99.90
44886;DHT22;36669;51.428;21.162;2023-11-21T07:02:11;1.00;99.90
44886;DHT22;36669;51.428;21.162;2023-11-21T07:04:37;1.10;99.90
44886;DHT22;36669;51.428;21.162;2023-11-21T07:07:03;1.00;99.90
44886;DHT22;36669;51.428;21.162;2023-11-21T07:09:29;1.10;99.90
44886;DHT22;36669;51.428;21.162;2023-11-21T07:11:57;1.00;99.90
44886;DHT22;36669;51.428;21.162;2023-11-21T07:14:22;1.00;99.90
44886;DHT22;36669;51.428;21.162;2023-11-21T07:16:49;0.90;99.90
44886;DHT22;36669;51.428;21.162;2023-11-21T07:19:16;0.90;99.90
44886;DHT22;36669;51.428;21.162;2023-11-21T07:21:44;0.90;99.90
44886;DHT22;36669;51.428;21.162;2023-11-21T07:24:13;0.90;99.90
44886;DHT22;36669;51.428;21.162;2023-11-21T07:26:38;0.90;99.90
44886;DHT22;36669;51.428;21.162;2023-11-21T07:29:04;0.80;99.90
44886;DHT22;36669;51.428;21.162;2023-11-21T07:31:31;0.80;99.90
44886;DHT22;36669;51.428;21.162;2023-11-21T07:34:02;0.70;99.90
44886;DHT22;36669;51.428;21.162;2023-11-21T07:36:27;0.70;99.90
44886;DHT22;36669;51.428;21.162;2023-11-21T07:38:55;0.70;99.90
44886;DHT22;36669;51.428;21.162;2023-11-21T07:41:20;0.70;99.90
44886;DHT22;36669;51.428;21.162;2023-11-21T07:43:49;0.80;99.90
44886;DHT22;36669;51.428;21.162;2023-11-21T07:46:17;0.70;99.90
44886;DHT22;36669;51.428;21.162;2023-11-21T07:48:43;0.70;99.90
44886;DHT22;36669;51.428;21.162;2023-11-21T07:51:10;0.70;99.90
44886;DHT22;36669;51.428;21.162;2023-11-21T07:53:37;0.70;99.90
44886;DHT22;36669;51.428;21.162;2023-11-21T07:56:10;0.70;99.90
44886;DHT22;36669;51.428;21.162;2023-11-21T07:58:36;0.60;99.90
44886;DHT22;36669;51.428;21.162;2023-11-21T08:01:03;0.60;99.90
44886;DHT22;36669;51.428;21.162;2023-11-21T08:03:30;0.60;99.90
44886;DHT22;36669;51.428;21.162;2023-11-21T08:05:59;0.60;99.90
44886;DHT22;36669;51.428;21.162;2023-11-21T08:08:26;0.60;99.90
44886;DHT22;36669;51.428;21.162;2023-11-21T08:10:54;0.60;99.90
44886;DHT22;36669;51.428;21.162;2023-11-21T08:13:23;0.60;99.90
44886;DHT22;36669;51.428;21.162;2023-11-21T08:15:53;0.70;99.90
44886;DHT22;36669;51.428;21.162;2023-11-21T08:18:20;0.70;99.90
44886;DHT22;36669;51.428;21.162;2023-11-21T08:20:47;0.60;99.90
44886;DHT22;36669;51.428;21.162;2023-11-21T08:23:15;0.60;99.90
44886;DHT22;36669;51.428;21.162;2023-11-21T08:25:47;0.70;99.90
44886;DHT22;36669;51.428;21.162;2023-11-21T08:28:14;0.60;99.90
44886;DHT22;36669;51.428;21.162;2023-11-21T08:30:41;0.70;99.90
44886;DHT22;36669;51.428;21.162;2023-11-21T08:33:08;0.70;99.90
44886;DHT22;36669;51.428;21.162;2023-11-21T08:35:34;0.70;99.90
44886;DHT22;36669;51.428;21.162;2023-11-21T08:38:03;0.70;99.90
44886;DHT22;36669;51.428;21.162;2023-11-21T08:40:30;0.60;99.90
44886;DHT22;36669;51.428;21.162;2023-11-21T08:42:57;0.70;99.90
44886;DHT22;36669;51.428;21.162;2023-11-21T08:45:27;0.70;99.90
44886;DHT22;36669;51.428;21.162;2023-11-21T08:47:54;0.70;99.90
44886;DHT22;36669;51.428;21.162;2023-11-21T08:50:20;0.70;99.90
44886;DHT22;36669;51.428;21.162;2023-11-21T08:52:48;0.70;99.90
44886;DHT22;36669;51.428;21.162;2023-11-21T08:55:14;0.70;99.90
44886;DHT22;36669;51.428;21.162;2023-11-21T08:57:45;0.70;99.90
44886;DHT22;36669;51.428;21.162;2023-11-21T09:00:12;0.70;99.90
44886;DHT22;36669;51.428;21.162;2023-11-21T09:02:44;0.80;99.90
44886;DHT22;36669;51.428;21.162;2023-11-21T09:05:12;0.70;99.90
44886;DHT22;36669;51.428;21.162;2023-11-21T09:07:41;0.80;99.90
44886;DHT22;36669;51.428;21.162;2023-11-21T09:10:09;0.70;99.90
44886;DHT22;36669;51.428;21.162;2023-11-21T09:12:36;0.70;99.90
44886;DHT22;36669;51.428;21.162;2023-11-21T09:15:05;0.70;99.90
44886;DHT22;36669;51.428;21.162;2023-11-21T09:17:33;0.70;99.90
44886;DHT22;36669;51.428;21.162;2023-11-21T09:20:04;0.60;99.90
44886;DHT22;36669;51.428;21.162;2023-11-21T09:22:40;0.60;99.90
44886;DHT22;36669;51.428;21.162;2023-11-21T09:25:07;0.70;99.90
44886;DHT22;36669;51.428;21.162;2023-11-21T09:27:34;0.70;99.90
44886;DHT22;36669;51.428;21.162;2023-11-21T09:30:02;0.70;99.90
44886;DHT22;36669;51.428;21.162;2023-11-21T09:32:32;0.70;99.90
44886;DHT22;36669;51.428;21.162;2023-11-21T09:34:57;0.70;99.90
44886;DHT22;36669;51.428;21.162;2023-11-21T09:37:23;0.70;99.90
44886;DHT22;36669;51.428;21.162;2023-11-21T09:39:51;0.70;99.90
44886;DHT22;36669;51.428;21.162;2023-11-21T09:42:36;0.70;99.90
44886;DHT22;36669;51.428;21.162;2023-11-21T09:45:08;0.80;99.90
44886;DHT22;36669;51.428;21.162;2023-11-21T09:47:39;0.80;99.90
44886;DHT22;36669;51.428;21.162;2023-11-21T09:50:06;0.80;99.90
44886;DHT22;36669;51.428;21.162;2023-11-21T09:55:26;0.70;99.90
44886;DHT22;36669;51.428;21.162;2023-11-21T09:57:54;0.70;99.90
44886;DHT22;36669;51.428;21.162;2023-11-21T10:00:22;0.80;99.90
44886;DHT22;36669;51.428;21.162;2023-11-21T10:02:49;0.80;99.90
44886;DHT22;36669;51.428;21.162;2023-11-21T10:05:16;0.70;99.90
44886;DHT22;36669;51.428;21.162;2023-11-21T10:07:43;0.80;99.90
44886;DHT22;36669;51.428;21.162;2023-11-21T10:10:12;0.70;99.90
44886;DHT22;36669;51.428;21.162;2023-11-21T10:12:39;0.70;99.90
44886;DHT22;36669;51.428;21.162;2023-11-21T10:15:11;0.80;99.90
44886;DHT22;36669;51.428;21.162;2023-11-21T10:17:42;0.80;99.90
44886;DHT22;36669;51.428;21.162;2023-11-21T10:20:12;0.90;99.90
44886;DHT22;36669;51.428;21.162;2023-11-21T10:22:41;0.80;99.90
44886;DHT22;36669;51.428;21.162;2023-11-21T10:25:09;0.80;99.90
44886;DHT22;36669;51.428;21.162;2023-11-21T10:27:38;0.80;99.90
44886;DHT22;36669;51.428;21.162;2023-11-21T10:30:06;0.80;99.90
44886;DHT22;36669;51.428;21.162;2023-11-21T10:32:34;0.80;99.90
44886;DHT22;36669;51.428;21.162;2023-11-21T10:35:02;0.80;99.90
44886;DHT22;36669;51.428;21.162;2023-11-21T10:37:33;0.80;99.90
44886;DHT22;36669;51.428;21.162;2023-11-21T10:39:59;0.80;99.90
44886;DHT22;36669;51.428;21.162;2023-11-21T10:42:25;0.80;99.90
44886;DHT22;36669;51.428;21.162;2023-11-21T10:44:54;0.80;99.90
44886;DHT22;36669;51.428;21.162;2023-11-21T10:47:21;0.80;99.90
44886;DHT22;36669;51.428;21.162;2023-11-21T10:49:49;0.80;99.90
44886;DHT22;36669;51.428;21.162;2023-11-21T10:52:19;0.90;99.90
44886;DHT22;36669;51.428;21.162;2023-11-21T10:54:47;0.80;99.90
44886;DHT22;36669;51.428;21.162;2023-11-21T10:57:18;0.90;99.90
44886;DHT22;36669;51.428;21.162;2023-11-21T10:59:47;0.90;99.90
44886;DHT22;36669;51.428;21.162;2023-11-21T11:02:25;1.00;99.90
44886;DHT22;36669;51.428;21.162;2023-11-21T11:04:54;1.00;99.90
44886;DHT22;36669;51.428;21.162;2023-11-21T11:07:30;1.00;99.90
44886;DHT22;36669;51.428;21.162;2023-11-21T11:10:00;1.10;99.90
44886;DHT22;36669;51.428;21.162;2023-11-21T11:12:26;1.10;99.90
44886;DHT22;36669;51.428;21.162;2023-11-21T11:14:53;1.20;99.90
44886;DHT22;36669;51.428;21.162;2023-11-21T11:17:20;1.20;99.90
44886;DHT22;36669;51.428;21.162;2023-11-21T11:19:48;1.10;99.90
44886;DHT22;36669;51.428;21.162;2023-11-21T11:22:24;1.10;99.90
44886;DHT22;36669;51.428;21.162;2023-11-21T11:31:14;1.00;99.90
44886;DHT22;36669;51.428;21.162;2023-11-21T11:33:53;0.90;99.90
44886;DHT22;36669;51.428;21.162;2023-11-21T11:36:47;0.90;99.90
44886;DHT22;36669;51.428;21.162;2023-11-21T11:39:40;0.90;99.90
44886;DHT22;36669;51.428;21.162;2023-11-21T11:42:18;0.90;99.90
44886;DHT22;36669;51.428;21.162;2023-11-21T11:44:51;0.80;99.90
44886;DHT22;36669;51.428;21.162;2023-11-21T11:47:32;0.70;99.90
44886;DHT22;36669;51.428;21.162;2023-11-21T11:50:11;0.70;99.90
44886;DHT22;36669;51.428;21.162;2023-11-21T11:52:50;0.60;99.90
44886;DHT22;36669;51.428;21.162;2023-11-21T11:55:18;0.60;99.90
44886;DHT22;36669;51.428;21.162;2023-11-21T11:57:54;0.60;99.90
44886;DHT22;36669;51.428;21.162;2023-11-21T12:00:34;0.60;99.90
44886;DHT22;36669;51.428;21.162;2023-11-21T12:03:06;0.60;99.90
44886;DHT22;36669;51.428;21.162;2023-11-21T12:05:35;0.60;99.90
44886;DHT22;36669;51.428;21.162;2023-11-21T12:08:05;0.60;99.90
44886;DHT22;36669;51.428;21.162;2023-11-21T12:10:34;0.60;99.90
44886;DHT22;36669;51.428;21.162;2023-11-21T12:13:02;0.60;99.90
44886;DHT22;36669;51.428;21.162;2023-11-21T12:15:29;0.60;99.90
44886;DHT22;36669;51.428;21.162;2023-11-21T12:17:57;0.60;99.90
44886;DHT22;36669;51.428;21.162;2023-11-21T12:20:32;0.70;99.90
44886;DHT22;36669;51.428;21.162;2023-11-21T12:23:02;0.80;99.90
44886;DHT22;36669;51.428;21.162;2023-11-21T12:25:30;0.80;99.90
44886;DHT22;36669;51.428;21.162;2023-11-21T12:28:01;0.80;99.90
44886;DHT22;36669;51.428;21.162;2023-11-21T12:30:32;0.70;99.90
44886;DHT22;36669;51.428;21.162;2023-11-21T12:33:09;0.70;99.90
44886;DHT22;36669;51.428;21.162;2023-11-21T12:35:36;0.70;99.90
44886;DHT22;36669;51.428;21.162;2023-11-21T12:38:05;0.70;99.90
44886;DHT22;36669;51.428;21.162;2023-11-21T12:40:32;0.70;99.90
44886;DHT22;36669;51.428;21.162;2023-11-21T12:42:59;0.60;99.90
44886;DHT22;36669;51.428;21.162;2023-11-21T12:45:30;0.60;99.90
44886;DHT22;36669;51.428;21.162;2023-11-21T12:48:04;0.60;99.90
44886;DHT22;36669;51.428;21.162;2023-11-21T12:50:36;0.60;99.90
44886;DHT22;36669;51.428;21.162;2023-11-21T12:53:06;0.70;99.90
44886;DHT22;36669;51.428;21.162;2023-11-21T12:55:35;0.70;99.90
44886;DHT22;36669;51.428;21.162;2023-11-21T12:58:08;0.70;99.90
44886;DHT22;36669;51.428;21.162;2023-11-21T13:00:44;0.70;99.90
44886;DHT22;36669;51.428;21.162;2023-11-21T13:03:13;0.70;99.90
44886;DHT22;36669;51.428;21.162;2023-11-21T13:05:44;0.60;99.90
44886;DHT22;36669;51.428;21.162;2023-11-21T13:08:11;0.60;99.90
44886;DHT22;36669;51.428;21.162;2023-11-21T13:10:44;0.60;99.90
44886;DHT22;36669;51.428;21.162;2023-11-21T13:13:32;0.60;99.90
44886;DHT22;36669;51.428;21.162;2023-11-21T13:16:06;0.60;99.90
44886;DHT22;36669;51.428;21.162;2023-11-21T13:18:35;0.60;99.90
44886;DHT22;36669;51.428;21.162;2023-11-21T13:21:04;0.50;99.90
44886;DHT22;36669;51.428;21.162;2023-11-21T13:23:36;0.50;99.90
44886;DHT22;36669;51.428;21.162;2023-11-21T13:26:04;0.50;99.90
44886;DHT22;36669;51.428;21.162;2023-11-21T13:28:32;0.50;99.90
44886;DHT22;36669;51.428;21.162;2023-11-21T13:31:01;0.50;99.90
44886;DHT22;36669;51.428;21.162;2023-11-21T13:33:37;0.40;99.90
44886;DHT22;36669;51.428;21.162;2023-11-21T13:36:05;0.50;99.90
44886;DHT22;36669;51.428;21.162;2023-11-21T13:38:34;0.50;99.90
44886;DHT22;36669;51.428;21.162;2023-11-21T13:41:03;0.50;99.90
44886;DHT22;36669;51.428;21.162;2023-11-21T13:43:35;0.50;99.90
44886;DHT22;36669;51.428;21.162;2023-11-21T13:46:03;0.50;99.90
44886;DHT22;36669;51.428;21.162;2023-11-21T13:48:39;0.40;99.90
44886;DHT22;36669;51.428;21.162;2023-11-21T13:51:13;0.40;99.90
44886;DHT22;36669;51.428;21.162;2023-11-21T13:53:44;0.40;99.90
44886;DHT22;36669;51.428;21.162;2023-11-21T13:56:15;0.40;99.90
44886;DHT22;36669;51.428;21.162;2023-11-21T13:58:47;0.40;99.90
44886;DHT22;36669;51.428;21.162;2023-11-21T14:01:18;0.30;99.90
44886;DHT22;36669;51.428;21.162;2023-11-21T14:04:03;0.30;99.90
44886;DHT22;36669;51.428;21.162;2023-11-21T14:07:03;0.20;99.90
44886;DHT22;36669;51.428;21.162;2023-11-21T14:09:45;0.20;99.90
44886;DHT22;36669;51.428;21.162;2023-11-21T14:12:16;0.20;99.90
44886;DHT22;36669;51.428;21.162;2023-11-21T14:14:42;0.20;99.90
44886;DHT22;36669;51.428;21.162;2023-11-21T14:17:09;0.20;99.90
44886;DHT22;36669;51.428;21.162;2023-11-21T14:19:36;0.20;99.90
44886;DHT22;36669;51.428;21.162;2023-11-21T14:22:09;0.20;99.90
44886;DHT22;36669;51.428;21.162;2023-11-21T14:24:36;0.20;99.90
44886;DHT22;36669;51.428;21.162;2023-11-21T14:27:05;0.20;99.90
44886;DHT22;36669;51.428;21.162;2023-11-21T14:29:32;0.20;99.90
44886;DHT22;36669;51.428;21.162;2023-11-21T14:32:07;0.20;99.90
44886;DHT22;36669;51.428;21.162;2023-11-21T14:34:34;0.20;99.90
44886;DHT22;36669;51.428;21.162;2023-11-21T14:36:59;0.10;99.90
44886;DHT22;36669;51.428;21.162;2023-11-21T14:39:30;0.10;99.90
44886;DHT22;36669;51.428;21.162;2023-11-21T14:41:57;0.10;99.90
44886;DHT22;36669;51.428;21.162;2023-11-21T14:44:25;0.00;99.90
44886;DHT22;36669;51.428;21.162;2023-11-21T14:46:56;0.00;99.90
44886;DHT22;36669;51.428;21.162;2023-11-21T14:49:22;0.00;99.90
44886;DHT22;36669;51.428;21.162;2023-11-21T14:51:52;0.00;99.90
44886;DHT22;36669;51.428;21.162;2023-11-21T14:54:45;0.00;99.90
44886;DHT22;36669;51.428;21.162;2023-11-21T14:57:13;0.00;99.90
44886;DHT22;36669;51.428;21.162;2023-11-21T14:59:50;0.00;99.90
44886;DHT22;36669;51.428;21.162;2023-11-21T15:02:21;-0.10;99.90
44886;DHT22;36669;51.428;21.162;2023-11-21T15:04:55;-0.10;99.90
44886;DHT22;36669;51.428;21.162;2023-11-21T15:07:28;-0.10;99.90
44886;DHT22;36669;51.428;21.162;2023-11-21T15:09:56;-0.10;99.90
44886;DHT22;36669;51.428;21.162;2023-11-21T15:12:21;-0.10;99.90
44886;DHT22;36669;51.428;21.162;2023-11-21T15:14:54;-0.10;99.90
44886;DHT22;36669;51.428;21.162;2023-11-21T15:17:23;-0.20;99.90
44886;DHT22;36669;51.428;21.162;2023-11-21T15:20:01;-0.30;99.90
44886;DHT22;36669;51.428;21.162;2023-11-21T15:22:27;-0.30;99.90
44886;DHT22;36669;51.428;21.162;2023-11-21T15:24:54;-0.30;99.90
44886;DHT22;36669;51.428;21.162;2023-11-21T15:27:21;-0.30;99.90
44886;DHT22;36669;51.428;21.162;2023-11-21T15:29:48;-0.30;99.90
44886;DHT22;36669;51.428;21.162;2023-11-21T15:32:15;-0.30;99.90
44886;DHT22;36669;51.428;21.162;2023-11-21T15:34:42;-0.30;99.90
44886;DHT22;36669;51.428;21.162;2023-11-21T15:37:08;-0.30;99.90
44886;DHT22;36669;51.428;21.162;2023-11-21T15:39:39;-0.40;99.90
44886;DHT22;36669;51.428;21.162;2023-11-21T15:42:06;-0.40;99.90
44886;DHT22;36669;51.428;21.162;2023-11-21T15:44:36;-0.40;99.90
44886;DHT22;36669;51.428;21.162;2023-11-21T15:47:11;-0.40;99.90
44886;DHT22;36669;51.428;21.162;2023-11-21T15:49:37;-0.40;99.90
44886;DHT22;36669;51.428;21.162;2023-11-21T15:52:05;-0.40;99.90